Follow

02/24 07:00
METAR RJOO 232200Z 33003KT 290V360 9999 FEW025 02/M03 Q1024 RMK 1CU025 A3025=

· · hikoukidon · 0 · 0 · 0
Sign in to participate in the conversation
hikoukidon

個人運用サーバです。 Private server.